Time;durP1;ratioP1;P1;durP2;ratioP2;P2;SDS_P1;SDS_P2;PMS_P1;PMS_P2;Temp;Humidity;BMP_temperature;BMP_pressure;BME280_temperature;BME280_humidity;BME280_pressure;Samples;Min_cycle;Max_cycle;Signal;HPM_P1;HPM_P2
2022/07/19 00:01:42;;;;;;;;;;;;;;;;;;5092449;28;20013;-78
2022/07/19 00:04:09;;;;;;;;;;;;;;;;;;5092611;28;19924;-78
2022/07/19 00:06:37;;;;;;;;;;;;;;;;;;5092216;28;20015;-78
2022/07/19 00:09:04;;;;;;;;;;;;;;;;;;5092728;28;19960;-78
2022/07/19 00:11:30;;;;;;;;;;;;;;;;;;5092249;28;20387;-78
2022/07/19 00:13:57;;;;;;;;;;;;;;;;;;5092953;28;19974;-78
2022/07/19 00:16:23;;;;;;;;;;;;;;;;;;5091874;28;19928;-78
2022/07/19 00:18:50;;;;;;;;;;;;;;;;;;5092420;28;20022;-78
2022/07/19 00:21:16;;;;;;;;;;;;;;;;;;5091775;28;20015;-78
2022/07/19 00:23:44;;;;;;;;;;;;;;;;;;5092294;28;19924;-78
2022/07/19 00:26:11;;;;;;;;;;;;;;;;;;5091821;28;20450;-78
2022/07/19 00:28:37;;;;;;;;;;;;;;;;;;5092339;28;20003;-78
2022/07/19 00:31:04;;;;;;;;;;;;;;;;;;5092196;28;19971;-77
2022/07/19 00:33:31;;;;;;;;;;;;;;;;;;5092145;28;19930;-77
2022/07/19 00:35:57;;;;;;;;;;;;;;;;;;5092829;28;19924;-77
2022/07/19 00:38:24;;;;;;;;;;;;;;;;;;5096390;28;19959;-78
2022/07/19 00:40:52;;;;;;;;;;;;;;;;;;5095977;28;19950;-78
2022/07/19 00:43:18;;;;;;;;;;;;;;;;;;5096295;28;19971;-77
2022/07/19 00:45:45;;;;;;;;;;;;;;;;;;5096259;28;19939;-78
2022/07/19 00:48:11;;;;;;;;;;;;;;;;;;5095625;28;19924;-77
2022/07/19 00:50:37;;;;;;;;;;;;;;;;;;5095810;28;19963;-78
2022/07/19 00:53:05;;;;;;;;;;;;;;;;;;5095948;28;20018;-77
2022/07/19 00:55:35;;;;;;;;;;;;;;;;;;5095745;28;19978;-77
2022/07/19 00:58:03;;;;;;;;;;;;;;;;;;5095460;28;19982;-78
2022/07/19 01:00:31;;;;;;;;;;;;;;;;;;5085985;28;20015;-78
2022/07/19 01:02:59;;;;;;;;;;;;;;;;;;5076616;28;20015;-78
2022/07/19 01:05:25;;;;;;;;;;;;;;;;;;5076663;28;19978;-78
2022/07/19 01:07:52;;;;;;;;;;;;;;;;;;5076142;28;19967;-77
2022/07/19 01:10:18;;;;;;;;;;;;;;;;;;5076462;28;19966;-78
2022/07/19 01:12:45;;;;;;;;;;;;;;;;;;5076567;28;19980;-78
2022/07/19 01:15:17;;;;;;;;;;;;;;;;;;5076131;28;19972;-77
2022/07/19 01:17:43;;;;;;;;;;;;;;;;;;5076247;28;20173;-78
2022/07/19 01:20:10;;;;;;;;;;;;;;;;;;5078194;28;19960;-78
2022/07/19 01:22:38;;;;;;;;;;;;;;;;;;5142674;22;20308;-76
2022/07/19 01:25:05;;;;;;;;;;;;;;;;;;5117788;28;20042;-76
2022/07/19 01:27:32;;;;;;;;;;;;;;;;;;5116419;28;19930;-76
2022/07/19 01:29:58;;;;;;;;;;;;;;;;;;5115928;28;19946;-75
2022/07/19 01:32:24;;;;;;;;;;;;;;;;;;5115836;28;20088;-76
2022/07/19 01:34:51;;;;;;;;;;;;;;;;;;5117487;28;20026;-76
2022/07/19 01:37:17;;;;;;;;;;;;;;;;;;5117098;28;19924;-76
2022/07/19 01:39:45;;;;;;;;;;;;;;;;;;5116563;28;19924;-77
2022/07/19 01:42:11;;;;;;;;;;;;;;;;;;5116128;28;19924;-76
2022/07/19 01:44:38;;;;;;;;;;;;;;;;;;5115711;28;20440;-76
2022/07/19 01:47:04;;;;;;;;;;;;;;;;;;5115362;28;19934;-76
2022/07/19 01:49:30;;;;;;;;;;;;;;;;;;5115111;28;19924;-76
2022/07/19 01:51:57;;;;;;;;;;;;;;;;;;5115773;28;19924;-77
2022/07/19 01:54:23;;;;;;;;;;;;;;;;;;5115482;28;19923;-76
2022/07/19 01:56:51;;;;;;;;;;;;;;;;;;5115133;28;19977;-76
2022/07/19 01:59:17;;;;;;;;;;;;;;;;;;5115295;28;19924;-76
2022/07/19 02:01:44;;;;;;;;;;;;;;;;;;5115052;28;19950;-74
2022/07/19 02:04:10;;;;;;;;;;;;;;;;;;5115314;28;20014;-75
2022/07/19 02:06:37;;;;;;;;;;;;;;;;;;5115106;28;19959;-76
2022/07/19 02:09:03;;;;;;;;;;;;;;;;;;5115339;28;19924;-76
2022/07/19 02:11:36;;;;;;;;;;;;;;;;;;5115092;28;20034;-76
2022/07/19 02:14:03;;;;;;;;;;;;;;;;;;5114910;28;19923;-76
2022/07/19 02:16:30;;;;;;;;;;;;;;;;;;5115566;28;20341;-76
2022/07/19 02:18:56;;;;;;;;;;;;;;;;;;5115043;28;20018;-75
2022/07/19 02:21:23;;;;;;;;;;;;;;;;;;5114708;28;19924;-75
2022/07/19 02:23:49;;;;;;;;;;;;;;;;;;5114598;28;20486;-75
2022/07/19 02:26:15;;;;;;;;;;;;;;;;;;5114352;28;19927;-75
2022/07/19 02:28:42;;;;;;;;;;;;;;;;;;5114360;28;19959;-76
2022/07/19 02:31:10;;;;;;;;;;;;;;;;;;5114500;28;19924;-74
2022/07/19 02:33:36;;;;;;;;;;;;;;;;;;5114713;28;19930;-75
2022/07/19 02:36:03;;;;;;;;;;;;;;;;;;5114259;28;19924;-75
2022/07/19 02:38:30;;;;;;;;;;;;;;;;;;5115877;28;19923;-77
2022/07/19 02:40:56;;;;;;;;;;;;;;;;;;5114226;28;19924;-75
2022/07/19 02:43:23;;;;;;;;;;;;;;;;;;5114227;28;19927;-75
2022/07/19 02:45:49;;;;;;;;;;;;;;;;;;5114246;28;20010;-75
2022/07/19 02:48:17;;;;;;;;;;;;;;;;;;5113965;28;20453;-75
2022/07/19 02:50:43;;;;;;;;;;;;;;;;;;5114211;28;20014;-75
2022/07/19 02:53:10;;;;;;;;;;;;;;;;;;5114372;28;19923;-75
2022/07/19 02:55:36;;;;;;;;;;;;;;;;;;5114164;28;19963;-74
2022/07/19 02:58:03;;;;;;;;;;;;;;;;;;5113905;28;19968;-75
2022/07/19 03:00:29;;;;;;;;;;;;;;;;;;5123652;27;19958;-75
2022/07/19 03:03:43;;;;;;;;;;;;;;;;;;5134933;27;20014;-75
2022/07/19 03:05:44;;;;;;;;;;;;;;;;;;5134367;27;19924;-75
2022/07/19 03:08:10;;;;;;;;;;;;;;;;;;5135298;27;20297;-75
2022/07/19 03:10:37;;;;;;;;;;;;;;;;;;5132291;27;19923;-75
2022/07/19 03:13:03;;;;;;;;;;;;;;;;;;5114053;28;19978;-74
2022/07/19 03:15:30;;;;;;;;;;;;;;;;;;5113496;28;19931;-76
2022/07/19 03:17:56;;;;;;;;;;;;;;;;;;5113275;28;20010;-74
2022/07/19 03:20:23;;;;;;;;;;;;;;;;;;5113604;28;19930;-75
2022/07/19 03:22:51;;;;;;;;;;;;;;;;;;5112976;28;19930;-75
2022/07/19 03:25:17;;;;;;;;;;;;;;;;;;5113056;28;20026;-75
2022/07/19 03:27:44;;;;;;;;;;;;;;;;;;5113199;28;20018;-75
2022/07/19 03:30:10;;;;;;;;;;;;;;;;;;5113283;28;20022;-76
2022/07/19 03:32:37;;;;;;;;;;;;;;;;;;5112673;28;20484;-76
2022/07/19 03:35:04;;;;;;;;;;;;;;;;;;5113263;28;19979;-75
2022/07/19 03:37:30;;;;;;;;;;;;;;;;;;5112498;28;19934;-75
2022/07/19 03:39:58;;;;;;;;;;;;;;;;;;5113072;28;19997;-75
2022/07/19 03:42:24;;;;;;;;;;;;;;;;;;5113282;28;20023;-75
2022/07/19 03:44:51;;;;;;;;;;;;;;;;;;5113280;28;19930;-75
2022/07/19 03:47:17;;;;;;;;;;;;;;;;;;5112830;28;19931;-76
2022/07/19 03:49:44;;;;;;;;;;;;;;;;;;5113145;28;20018;-75
2022/07/19 03:52:11;;;;;;;;;;;;;;;;;;5112852;28;20010;-75
2022/07/19 03:54:37;;;;;;;;;;;;;;;;;;5113187;28;19923;-75
2022/07/19 03:57:05;;;;;;;;;;;;;;;;;;5112591;28;20010;-75
2022/07/19 03:59:31;;;;;;;;;;;;;;;;;;5114926;27;19931;-76
2022/07/19 04:01:58;;;;;;;;;;;;;;;;;;5133368;27;20321;-75
2022/07/19 04:04:24;;;;;;;;;;;;;;;;;;5133076;27;19966;-75
2022/07/19 04:06:51;;;;;;;;;;;;;;;;;;5132814;27;20479;-76
2022/07/19 04:09:17;;;;;;;;;;;;;;;;;;5133246;27;19930;-75
2022/07/19 04:11:44;;;;;;;;;;;;;;;;;;5132970;27;20026;-76
2022/07/19 04:14:11;;;;;;;;;;;;;;;;;;5133178;27;20587;-75
2022/07/19 04:16:38;;;;;;;;;;;;;;;;;;5133080;28;20010;-76
2022/07/19 04:19:04;;;;;;;;;;;;;;;;;;5133114;28;20436;-74
2022/07/19 04:21:31;;;;;;;;;;;;;;;;;;5133129;28;20021;-75
2022/07/19 04:23:57;;;;;;;;;;;;;;;;;;5133243;28;19945;-75
2022/07/19 04:26:24;;;;;;;;;;;;;;;;;;5132772;28;20018;-75
2022/07/19 04:28:50;;;;;;;;;;;;;;;;;;5133073;28;20006;-75
2022/07/19 04:31:18;;;;;;;;;;;;;;;;;;5133037;28;19927;-76
2022/07/19 04:33:45;;;;;;;;;;;;;;;;;;5133202;28;19927;-77
2022/07/19 04:36:11;;;;;;;;;;;;;;;;;;5134314;28;19927;-76
2022/07/19 04:38:38;;;;;;;;;;;;;;;;;;5132955;28;20010;-76
2022/07/19 04:41:04;;;;;;;;;;;;;;;;;;5133092;28;20373;-75
2022/07/19 04:43:31;;;;;;;;;;;;;;;;;;5132906;28;19991;-75
2022/07/19 04:45:59;;;;;;;;;;;;;;;;;;5132595;28;20377;-75
2022/07/19 04:48:27;;;;;;;;;;;;;;;;;;5133134;28;19924;-76
2022/07/19 04:50:54;;;;;;;;;;;;;;;;;;5132808;28;19923;-75
2022/07/19 04:53:20;;;;;;;;;;;;;;;;;;5133134;28;19923;-76
2022/07/19 04:55:47;;;;;;;;;;;;;;;;;;5133097;28;19927;-75
2022/07/19 04:58:13;;;;;;;;;;;;;;;;;;5132918;28;19972;-76
2022/07/19 05:00:40;;;;;;;;;;;;;;;;;;5132561;28;20006;-75
2022/07/19 05:03:06;;;;;;;;;;;;;;;;;;5132928;28;20398;-75
2022/07/19 05:05:34;;;;;;;;;;;;;;;;;;5133039;28;19930;-74
2022/07/19 05:08:00;;;;;;;;;;;;;;;;;;5132796;28;19930;-75
2022/07/19 05:10:27;;;;;;;;;;;;;;;;;;5132946;28;20380;-76
2022/07/19 05:12:53;;;;;;;;;;;;;;;;;;5133313;28;20002;-76
2022/07/19 05:15:20;;;;;;;;;;;;;;;;;;5132991;28;20013;-76
2022/07/19 05:17:46;;;;;;;;;;;;;;;;;;5132913;28;19971;-76
2022/07/19 05:20:15;;;;;;;;;;;;;;;;;;5133391;28;20010;-76
2022/07/19 05:22:43;;;;;;;;;;;;;;;;;;5133064;27;19969;-76
2022/07/19 05:25:10;;;;;;;;;;;;;;;;;;5137175;27;20373;-77
2022/07/19 05:27:36;;;;;;;;;;;;;;;;;;5136767;27;19923;-76
2022/07/19 05:30:03;;;;;;;;;;;;;;;;;;5137109;27;20003;-76
2022/07/19 05:32:30;;;;;;;;;;;;;;;;;;5138447;27;19923;-76
2022/07/19 05:34:56;;;;;;;;;;;;;;;;;;5138256;27;19935;-75
2022/07/19 05:37:23;;;;;;;;;;;;;;;;;;5137049;27;19945;-75
2022/07/19 05:39:50;;;;;;;;;;;;;;;;;;5136210;27;20007;-76
2022/07/19 05:42:17;;;;;;;;;;;;;;;;;;5135923;27;19923;-76
2022/07/19 05:44:43;;;;;;;;;;;;;;;;;;5135906;27;19967;-75
2022/07/19 05:47:10;;;;;;;;;;;;;;;;;;5135753;27;20005;-75
2022/07/19 05:49:36;;;;;;;;;;;;;;;;;;5136044;27;20014;-76
2022/07/19 05:52:03;;;;;;;;;;;;;;;;;;5136185;27;19968;-76
2022/07/19 05:54:29;;;;;;;;;;;;;;;;;;5135978;27;19923;-74
2022/07/19 05:56:57;;;;;;;;;;;;;;;;;;5136338;27;20013;-76
2022/07/19 05:59:24;;;;;;;;;;;;;;;;;;5134818;27;20377;-76
2022/07/19 06:01:50;;;;;;;;;;;;;;;;;;5115046;28;20081;-75
2022/07/19 06:04:17;;;;;;;;;;;;;;;;;;5115005;28;20372;-76
2022/07/19 06:06:43;;;;;;;;;;;;;;;;;;5114713;28;20047;-75
2022/07/19 06:09:11;;;;;;;;;;;;;;;;;;5115109;28;20460;-75
2022/07/19 06:11:38;;;;;;;;;;;;;;;;;;5114514;28;20014;-76
2022/07/19 06:14:06;;;;;;;;;;;;;;;;;;5115481;28;20019;-76
2022/07/19 06:16:32;;;;;;;;;;;;;;;;;;5115535;28;20293;-77
2022/07/19 06:18:59;;;;;;;;;;;;;;;;;;5115011;28;19927;-77
2022/07/19 06:21:25;;;;;;;;;;;;;;;;;;5114759;28;19930;-76
2022/07/19 06:23:52;;;;;;;;;;;;;;;;;;5114860;28;19963;-77
2022/07/19 06:26:19;;;;;;;;;;;;;;;;;;5115116;28;20022;-76
2022/07/19 06:28:45;;;;;;;;;;;;;;;;;;5114871;28;20010;-76
2022/07/19 06:31:14;;;;;;;;;;;;;;;;;;5114449;28;20416;-77
2022/07/19 06:33:40;;;;;;;;;;;;;;;;;;5116453;28;20014;-76
2022/07/19 06:36:07;;;;;;;;;;;;;;;;;;5123192;27;19923;-77
2022/07/19 06:38:34;;;;;;;;;;;;;;;;;;5135507;27;19946;-77
2022/07/19 06:41:00;;;;;;;;;;;;;;;;;;5134939;27;20376;-77
2022/07/19 06:43:27;;;;;;;;;;;;;;;;;;5135157;27;20018;-76
2022/07/19 06:45:53;;;;;;;;;;;;;;;;;;5135035;27;20297;-77
2022/07/19 06:48:21;;;;;;;;;;;;;;;;;;5134620;27;19991;-80
2022/07/19 06:50:47;;;;;;;;;;;;;;;;;;5135522;27;19924;-77
2022/07/19 06:53:14;;;;;;;;;;;;;;;;;;5134082;27;20014;-76
2022/07/19 06:55:40;;;;;;;;;;;;;;;;;;5135396;27;20024;-77
2022/07/19 06:58:07;;;;;;;;;;;;;;;;;;5135369;27;19923;-77
2022/07/19 07:00:33;;;;;;;;;;;;;;;;;;5134449;27;20014;-77
2022/07/19 07:02:59;;;;;;;;;;;;;;;;;;5135089;27;20010;-77
2022/07/19 07:05:27;;;;;;;;;;;;;;;;;;5135017;27;19959;-77
2022/07/19 07:07:54;;;;;;;;;;;;;;;;;;5134454;27;19940;-78
2022/07/19 07:10:21;;;;;;;;;;;;;;;;;;5132397;27;19943;-77
2022/07/19 07:12:47;;;;;;;;;;;;;;;;;;5115330;27;20054;-76
2022/07/19 07:15:14;;;;;;;;;;;;;;;;;;5131257;27;19962;-76
2022/07/19 07:17:40;;;;;;;;;;;;;;;;;;5132183;27;19949;-76
2022/07/19 07:20:07;;;;;;;;;;;;;;;;;;5132664;27;19930;-78
2022/07/19 07:22:35;;;;;;;;;;;;;;;;;;5132010;27;19935;-77
2022/07/19 07:25:02;;;;;;;;;;;;;;;;;;5124816;27;20373;-77
2022/07/19 07:27:28;;;;;;;;;;;;;;;;;;5111649;28;20305;-77
2022/07/19 07:29:55;;;;;;;;;;;;;;;;;;5112134;28;20366;-81
2022/07/19 07:32:21;;;;;;;;;;;;;;;;;;5112109;28;20500;-77
2022/07/19 07:34:48;;;;;;;;;;;;;;;;;;5111421;28;20003;-75
2022/07/19 07:37:14;;;;;;;;;;;;;;;;;;5112140;28;19924;-76
2022/07/19 07:39:42;;;;;;;;;;;;;;;;;;5111312;28;19974;-75
2022/07/19 07:42:09;;;;;;;;;;;;;;;;;;5111140;28;19923;-76
2022/07/19 07:44:35;;;;;;;;;;;;;;;;;;5111382;28;19951;-77
2022/07/19 07:47:01;;;;;;;;;;;;;;;;;;5110689;28;20021;-77
2022/07/19 07:49:29;;;;;;;;;;;;;;;;;;5112283;28;20006;-76
2022/07/19 07:51:56;;;;;;;;;;;;;;;;;;5111390;28;19946;-77
2022/07/19 07:54:23;;;;;;;;;;;;;;;;;;5111391;28;19923;-76
2022/07/19 07:56:50;;;;;;;;;;;;;;;;;;5112641;28;19982;-77
2022/07/19 07:59:17;;;;;;;;;;;;;;;;;;5114359;28;20011;-79
2022/07/19 08:01:44;;;;;;;;;;;;;;;;;;5137460;27;20018;-78
2022/07/19 08:04:10;;;;;;;;;;;;;;;;;;5131905;27;20340;-77
2022/07/19 08:06:37;;;;;;;;;;;;;;;;;;5131872;27;19966;-77
2022/07/19 08:09:04;;;;;;;;;;;;;;;;;;5132030;27;20372;-77
2022/07/19 08:11:30;;;;;;;;;;;;;;;;;;5132357;27;19974;-78
2022/07/19 08:13:58;;;;;;;;;;;;;;;;;;5131894;27;19923;-76
2022/07/19 08:16:25;;;;;;;;;;;;;;;;;;5131749;27;19955;-76
2022/07/19 08:18:52;;;;;;;;;;;;;;;;;;5131521;28;20030;-77
2022/07/19 08:21:18;;;;;;;;;;;;;;;;;;5131605;28;19955;-77
2022/07/19 08:23:44;;;;;;;;;;;;;;;;;;5132673;28;20007;-77
2022/07/19 08:26:11;;;;;;;;;;;;;;;;;;5132515;28;20638;-76
2022/07/19 08:28:37;;;;;;;;;;;;;;;;;;5132597;28;20507;-77
2022/07/19 08:31:05;;;;;;;;;;;;;;;;;;5131868;28;19923;-77
2022/07/19 08:33:32;;;;;;;;;;;;;;;;;;5131840;28;20013;-77
2022/07/19 08:35:58;;;;;;;;;;;;;;;;;;5132467;28;19923;-77
2022/07/19 08:38:25;;;;;;;;;;;;;;;;;;5132609;28;20013;-77
2022/07/19 08:40:51;;;;;;;;;;;;;;;;;;5132030;28;19923;-77
2022/07/19 08:43:20;;;;;;;;;;;;;;;;;;5132031;28;20026;-77
2022/07/19 08:45:47;;;;;;;;;;;;;;;;;;5131022;28;19923;-77
2022/07/19 08:48:15;;;;;;;;;;;;;;;;;;5131299;28;20002;-76
2022/07/19 08:50:42;;;;;;;;;;;;;;;;;;5131126;28;20304;-79
2022/07/19 08:53:08;;;;;;;;;;;;;;;;;;5131625;28;20011;-77
2022/07/19 08:55:35;;;;;;;;;;;;;;;;;;5132360;28;19923;-78
2022/07/19 08:58:01;;;;;;;;;;;;;;;;;;5132958;27;19930;-76
2022/07/19 09:00:28;;;;;;;;;;;;;;;;;;5134925;27;20382;-78
2022/07/19 09:02:56;;;;;;;;;;;;;;;;;;5135954;27;20011;-76
2022/07/19 09:05:24;;;;;;;;;;;;;;;;;;5135468;27;19951;-77
2022/07/19 09:08:01;;;;;;;;;;;;;;;;;;5135048;27;20389;-75
2022/07/19 09:10:28;;;;;;;;;;;;;;;;;;5135481;27;20385;-77
2022/07/19 09:13:01;;;;;;;;;;;;;;;;;;5125399;27;19955;-77
2022/07/19 09:15:38;;;;;;;;;;;;;;;;;;5117729;27;20098;-77
2022/07/19 09:18:08;;;;;;;;;;;;;;;;;;5135135;27;19930;-77
2022/07/19 09:20:36;;;;;;;;;;;;;;;;;;5135836;27;19923;-77
2022/07/19 09:23:03;;;;;;;;;;;;;;;;;;5138741;27;19975;-78
2022/07/19 09:25:34;;;;;;;;;;;;;;;;;;5139074;27;19976;-76
2022/07/19 09:28:00;;;;;;;;;;;;;;;;;;5137515;27;19980;-79
2022/07/19 09:30:38;;;;;;;;;;;;;;;;;;5137722;27;20023;-76
2022/07/19 09:33:14;;;;;;;;;;;;;;;;;;5135314;27;19923;-77
2022/07/19 09:35:43;;;;;;;;;;;;;;;;;;5134129;27;19927;-77
2022/07/19 09:38:20;;;;;;;;;;;;;;;;;;5133902;27;20026;-77
2022/07/19 09:40:47;;;;;;;;;;;;;;;;;;5134411;27;19927;-77
2022/07/19 09:43:13;;;;;;;;;;;;;;;;;;5135337;27;19945;-77
2022/07/19 09:45:40;;;;;;;;;;;;;;;;;;5134764;27;20203;-78
2022/07/19 09:48:06;;;;;;;;;;;;;;;;;;5134135;27;19963;-78
2022/07/19 09:50:33;;;;;;;;;;;;;;;;;;5134662;27;19927;-77
2022/07/19 09:53:02;;;;;;;;;;;;;;;;;;5134493;27;19927;-78
2022/07/19 09:55:28;;;;;;;;;;;;;;;;;;5134457;27;20014;-76
2022/07/19 09:57:56;;;;;;;;;;;;;;;;;;5134415;27;19949;-78
2022/07/19 10:00:24;;;;;;;;;;;;;;;;;;5134788;27;20013;-78
2022/07/19 10:02:52;;;;;;;;;;;;;;;;;;5134974;27;20026;-77
2022/07/19 10:05:20;;;;;;;;;;;;;;;;;;5134633;27;20382;-78
2022/07/19 10:07:47;;;;;;;;;;;;;;;;;;5139181;27;19966;-76
2022/07/19 10:10:15;;;;;;;;;;;;;;;;;;5139739;27;20449;-76
2022/07/19 10:12:43;;;;;;;;;;;;;;;;;;5137916;27;19964;-77
2022/07/19 10:15:10;;;;;;;;;;;;;;;;;;5134213;27;20024;-77
2022/07/19 10:17:39;;;;;;;;;;;;;;;;;;5133801;27;19927;-76
2022/07/19 10:20:07;;;;;;;;;;;;;;;;;;5133626;27;20022;-76
2022/07/19 10:22:33;;;;;;;;;;;;;;;;;;5133735;27;19923;-76
2022/07/19 10:25:01;;;;;;;;;;;;;;;;;;5133766;27;20015;-77
2022/07/19 10:27:39;;;;;;;;;;;;;;;;;;5133864;27;19958;-76
2022/07/19 10:30:23;;;;;;;;;;;;;;;;;;5133773;27;19924;-76
2022/07/19 10:32:50;;;;;;;;;;;;;;;;;;5134245;27;20569;-78
2022/07/19 10:35:18;;;;;;;;;;;;;;;;;;5134627;27;19966;-76
2022/07/19 10:37:45;;;;;;;;;;;;;;;;;;5134191;27;19945;-76
2022/07/19 10:40:11;;;;;;;;;;;;;;;;;;5134255;27;19966;-77
2022/07/19 10:42:59;;;;;;;;;;;;;;;;;;5133566;27;20043;-77
2022/07/19 10:45:26;;;;;;;;;;;;;;;;;;5134165;27;19992;-78
2022/07/19 10:48:13;;;;;;;;;;;;;;;;;;5135072;27;19955;-76
2022/07/19 10:50:44;;;;;;;;;;;;;;;;;;5134340;27;19978;-79
2022/07/19 10:53:10;;;;;;;;;;;;;;;;;;5135001;27;19976;-77
2022/07/19 10:55:37;;;;;;;;;;;;;;;;;;5137203;27;19955;-76
2022/07/19 10:58:11;;;;;;;;;;;;;;;;;;5139791;27;19924;-80
2022/07/19 11:00:42;;;;;;;;;;;;;;;;;;5131539;27;19954;-82
2022/07/19 11:03:28;;;;;;;;;;;;;;;;;;5116883;28;19967;-75
2022/07/19 11:05:55;;;;;;;;;;;;;;;;;;5113481;28;19924;-77
2022/07/19 11:08:31;;;;;;;;;;;;;;;;;;5116503;28;20005;-77
2022/07/19 11:11:02;;;;;;;;;;;;;;;;;;5114420;28;20374;-77
2022/07/19 11:13:30;;;;;;;;;;;;;;;;;;5116263;28;20026;-81
2022/07/19 11:15:57;;;;;;;;;;;;;;;;;;5112942;28;19969;-82
2022/07/19 11:18:23;;;;;;;;;;;;;;;;;;5115245;28;19970;-78
2022/07/19 11:20:52;;;;;;;;;;;;;;;;;;5115288;28;21324;-77
2022/07/19 11:23:19;;;;;;;;;;;;;;;;;;5112754;28;20432;-78
2022/07/19 11:25:49;;;;;;;;;;;;;;;;;;5114324;28;20005;-78
2022/07/19 11:28:21;;;;;;;;;;;;;;;;;;5116433;27;20010;-76
2022/07/19 11:30:49;;;;;;;;;;;;;;;;;;5114756;28;19923;-77
2022/07/19 11:33:17;;;;;;;;;;;;;;;;;;5112322;28;20053;-76
2022/07/19 11:35:53;;;;;;;;;;;;;;;;;;5130329;27;19924;-77
2022/07/19 11:38:19;;;;;;;;;;;;;;;;;;5131385;27;20010;-77
2022/07/19 11:40:46;;;;;;;;;;;;;;;;;;5131704;27;19999;-77
2022/07/19 11:43:12;;;;;;;;;;;;;;;;;;5132317;27;20365;-77
2022/07/19 11:45:43;;;;;;;;;;;;;;;;;;5133827;27;20047;-76
2022/07/19 11:48:10;;;;;;;;;;;;;;;;;;5132143;27;20010;-77
2022/07/19 11:50:39;;;;;;;;;;;;;;;;;;5131821;27;20437;-76
2022/07/19 11:53:05;;;;;;;;;;;;;;;;;;5132398;27;19923;-76
2022/07/19 11:55:36;;;;;;;;;;;;;;;;;;5131021;27;19935;-77
2022/07/19 11:58:06;;;;;;;;;;;;;;;;;;5131875;27;19927;-77
2022/07/19 12:00:34;;;;;;;;;;;;;;;;;;5120767;27;19946;-76
2022/07/19 12:03:03;;;;;;;;;;;;;;;;;;5111063;28;19930;-76
2022/07/19 12:05:32;;;;;;;;;;;;;;;;;;5111009;28;19924;-78
2022/07/19 12:08:00;;;;;;;;;;;;;;;;;;5111694;28;19946;-76
2022/07/19 12:10:33;;;;;;;;;;;;;;;;;;5111378;28;20014;-77
2022/07/19 12:12:59;;;;;;;;;;;;;;;;;;5111233;28;19982;-76
2022/07/19 12:15:26;;;;;;;;;;;;;;;;;;5110752;28;20108;-77
2022/07/19 12:17:56;;;;;;;;;;;;;;;;;;5110557;28;19975;-77
2022/07/19 12:20:23;;;;;;;;;;;;;;;;;;5110247;28;19931;-78
2022/07/19 12:22:51;;;;;;;;;;;;;;;;;;5110549;28;19990;-77
2022/07/19 12:25:35;;;;;;;;;;;;;;;;;;5110795;28;20375;-77
2022/07/19 12:28:02;;;;;;;;;;;;;;;;;;5111127;28;20014;-77
2022/07/19 12:30:29;;;;;;;;;;;;;;;;;;5110798;28;19955;-76
2022/07/19 12:33:05;;;;;;;;;;;;;;;;;;5113695;28;19942;-77
2022/07/19 12:35:40;;;;;;;;;;;;;;;;;;5116028;28;19924;-77
2022/07/19 12:38:09;;;;;;;;;;;;;;;;;;5115475;28;19971;-77
2022/07/19 12:40:36;;;;;;;;;;;;;;;;;;5116080;28;20014;-78
2022/07/19 12:43:03;;;;;;;;;;;;;;;;;;5114975;28;19963;-78
2022/07/19 12:45:31;;;;;;;;;;;;;;;;;;5115317;28;19931;-78
2022/07/19 12:47:58;;;;;;;;;;;;;;;;;;5115458;28;19923;-76
2022/07/19 12:50:25;;;;;;;;;;;;;;;;;;5115681;28;20425;-78
2022/07/19 12:52:52;;;;;;;;;;;;;;;;;;5116877;28;20023;-77
2022/07/19 12:55:20;;;;;;;;;;;;;;;;;;5115549;28;20370;-77
2022/07/19 12:57:47;;;;;;;;;;;;;;;;;;5115330;28;19928;-77
2022/07/19 13:00:14;;;;;;;;;;;;;;;;;;5123412;27;20602;-77
2022/07/19 13:02:41;;;;;;;;;;;;;;;;;;5135490;27;20022;-77
2022/07/19 13:05:07;;;;;;;;;;;;;;;;;;5135472;27;19924;-78
2022/07/19 13:07:34;;;;;;;;;;;;;;;;;;5135182;27;20069;-77
2022/07/19 13:10:00;;;;;;;;;;;;;;;;;;5135243;27;20014;-76
2022/07/19 13:12:28;;;;;;;;;;;;;;;;;;5134901;27;19974;-78
2022/07/19 13:14:55;;;;;;;;;;;;;;;;;;5136740;27;19930;-79
2022/07/19 13:17:21;;;;;;;;;;;;;;;;;;5135753;27;19966;-76
2022/07/19 13:19:48;;;;;;;;;;;;;;;;;;5135476;27;19929;-77
2022/07/19 13:22:14;;;;;;;;;;;;;;;;;;5135401;27;19923;-77
2022/07/19 13:24:41;;;;;;;;;;;;;;;;;;5136334;27;19966;-76
2022/07/19 13:27:07;;;;;;;;;;;;;;;;;;5156600;22;20275;-76
2022/07/19 13:29:36;;;;;;;;;;;;;;;;;;5033850;28;19975;-77
2022/07/19 13:32:03;;;;;;;;;;;;;;;;;;5034356;28;19925;-77
2022/07/19 13:34:29;;;;;;;;;;;;;;;;;;5033261;28;19925;-77
2022/07/19 13:36:56;;;;;;;;;;;;;;;;;;5033025;28;20036;-76
2022/07/19 13:39:23;;;;;;;;;;;;;;;;;;5033094;28;20321;-78
2022/07/19 13:41:50;;;;;;;;;;;;;;;;;;5033167;28;20045;-77
2022/07/19 13:44:17;;;;;;;;;;;;;;;;;;5032652;28;20283;-77
2022/07/19 13:46:44;;;;;;;;;;;;;;;;;;5033029;28;19957;-77
2022/07/19 13:49:11;;;;;;;;;;;;;;;;;;5033332;28;20414;-77
2022/07/19 13:51:38;;;;;;;;;;;;;;;;;;5033144;28;20483;-77
2022/07/19 13:54:05;;;;;;;;;;;;;;;;;;5033115;28;19972;-77
2022/07/19 13:56:31;;;;;;;;;;;;;;;;;;5033252;28;19972;-78
2022/07/19 13:58:59;;;;;;;;;;;;;;;;;;5033761;28;20026;-78
2022/07/19 14:01:25;;;;;;;;;;;;;;;;;;5050806;28;19924;-77
2022/07/19 14:03:53;;;;;;;;;;;;;;;;;;5054025;28;19964;-77
2022/07/19 14:06:20;;;;;;;;;;;;;;;;;;5052994;28;19967;-77
2022/07/19 14:08:46;;;;;;;;;;;;;;;;;;5052916;28;20545;-78
2022/07/19 14:11:16;;;;;;;;;;;;;;;;;;5056457;28;19927;-78
2022/07/19 14:13:43;;;;;;;;;;;;;;;;;;5046951;28;19932;-75
2022/07/19 14:16:10;;;;;;;;;;;;;;;;;;5034201;28;19955;-77
2022/07/19 14:18:36;;;;;;;;;;;;;;;;;;5033971;28;20410;-76
2022/07/19 14:21:04;;;;;;;;;;;;;;;;;;5032543;28;20308;-76
2022/07/19 14:23:31;;;;;;;;;;;;;;;;;;5032179;28;20403;-77
2022/07/19 14:25:58;;;;;;;;;;;;;;;;;;5032421;28;19968;-77
2022/07/19 14:28:24;;;;;;;;;;;;;;;;;;5031934;28;19964;-77
2022/07/19 14:30:51;;;;;;;;;;;;;;;;;;5031869;28;19964;-77
2022/07/19 14:33:17;;;;;;;;;;;;;;;;;;5032168;28;20034;-77
2022/07/19 14:35:44;;;;;;;;;;;;;;;;;;5031908;28;19929;-77
2022/07/19 14:38:12;;;;;;;;;;;;;;;;;;5031968;28;19925;-77
2022/07/19 14:40:38;;;;;;;;;;;;;;;;;;5032009;28;20065;-77
2022/07/19 14:43:05;;;;;;;;;;;;;;;;;;5031925;28;19925;-77
2022/07/19 14:45:31;;;;;;;;;;;;;;;;;;5031921;28;19972;-77
2022/07/19 14:47:58;;;;;;;;;;;;;;;;;;5032372;28;19925;-77
2022/07/19 14:50:24;;;;;;;;;;;;;;;;;;5032114;28;20027;-78
2022/07/19 14:52:51;;;;;;;;;;;;;;;;;;5032774;28;19976;-79
2022/07/19 14:55:19;;;;;;;;;;;;;;;;;;5032189;28;19976;-78
2022/07/19 14:57:45;;;;;;;;;;;;;;;;;;5031780;28;19964;-77
2022/07/19 15:00:13;;;;;;;;;;;;;;;;;;5032119;28;20583;-79
2022/07/19 15:02:39;;;;;;;;;;;;;;;;;;5032130;28;19931;-78
2022/07/19 15:05:07;;;;;;;;;;;;;;;;;;5033702;28;20024;-79
2022/07/19 15:07:33;;;;;;;;;;;;;;;;;;5032233;28;20012;-78
2022/07/19 15:10:00;;;;;;;;;;;;;;;;;;5032493;28;19925;-78
2022/07/19 15:12:28;;;;;;;;;;;;;;;;;;5033662;28;19971;-78
2022/07/19 15:14:54;;;;;;;;;;;;;;;;;;5034003;28;19925;-77
2022/07/19 15:17:21;;;;;;;;;;;;;;;;;;5030521;28;20563;-77
2022/07/19 15:19:48;;;;;;;;;;;;;;;;;;5032576;28;19972;-77
2022/07/19 15:22:14;;;;;;;;;;;;;;;;;;5032122;28;20350;-78
2022/07/19 15:24:41;;;;;;;;;;;;;;;;;;5051718;28;19975;-77
2022/07/19 15:27:07;;;;;;;;;;;;;;;;;;5051335;28;19968;-78
2022/07/19 15:29:35;;;;;;;;;;;;;;;;;;5051852;28;20375;-78
2022/07/19 15:32:01;;;;;;;;;;;;;;;;;;5051520;28;19925;-78
2022/07/19 15:34:28;;;;;;;;;;;;;;;;;;5050955;28;20401;-78
2022/07/19 15:36:54;;;;;;;;;;;;;;;;;;5051248;28;19924;-78
2022/07/19 15:39:21;;;;;;;;;;;;;;;;;;5053580;28;20015;-78
2022/07/19 15:41:48;;;;;;;;;;;;;;;;;;5054905;28;19992;-79
2022/07/19 15:44:14;;;;;;;;;;;;;;;;;;5055247;28;19925;-78
2022/07/19 15:46:42;;;;;;;;;;;;;;;;;;5054584;28;19935;-77
2022/07/19 15:49:08;;;;;;;;;;;;;;;;;;5054293;28;19972;-79
2022/07/19 15:51:35;;;;;;;;;;;;;;;;;;5053000;28;20273;-78
2022/07/19 15:54:01;;;;;;;;;;;;;;;;;;5055018;28;20380;-78
2022/07/19 15:56:28;;;;;;;;;;;;;;;;;;5055022;28;20028;-78
2022/07/19 15:58:55;;;;;;;;;;;;;;;;;;5056473;28;20333;-77
2022/07/19 16:01:21;;;;;;;;;;;;;;;;;;5054416;28;20390;-77
2022/07/19 16:03:49;;;;;;;;;;;;;;;;;;5052941;28;19978;-77
2022/07/19 16:06:16;;;;;;;;;;;;;;;;;;5045298;28;19978;-78
2022/07/19 16:08:42;;;;;;;;;;;;;;;;;;5052350;28;19968;-77
2022/07/19 16:11:09;;;;;;;;;;;;;;;;;;5052833;28;20526;-77
2022/07/19 16:13:36;;;;;;;;;;;;;;;;;;5054197;28;19931;-77
2022/07/19 16:16:02;;;;;;;;;;;;;;;;;;5052225;28;19951;-78
2022/07/19 16:18:32;;;;;;;;;;;;;;;;;;5052129;28;20574;-78
2022/07/19 16:21:00;;;;;;;;;;;;;;;;;;5051779;28;20346;-77
2022/07/19 16:23:27;;;;;;;;;;;;;;;;;;5054345;28;19968;-77
2022/07/19 16:25:53;;;;;;;;;;;;;;;;;;5053323;28;20019;-77
2022/07/19 16:28:20;;;;;;;;;;;;;;;;;;5044629;28;19926;-77
2022/07/19 16:30:46;;;;;;;;;;;;;;;;;;5032631;28;19987;-77
2022/07/19 16:33:13;;;;;;;;;;;;;;;;;;5032538;28;20012;-76
2022/07/19 16:35:39;;;;;;;;;;;;;;;;;;5029851;28;20028;-77
2022/07/19 16:38:09;;;;;;;;;;;;;;;;;;5030138;28;20017;-77
2022/07/19 16:40:35;;;;;;;;;;;;;;;;;;5031375;28;19925;-76
2022/07/19 16:43:02;;;;;;;;;;;;;;;;;;5032464;28;19978;-78
2022/07/19 16:45:28;;;;;;;;;;;;;;;;;;5032620;28;19925;-78
2022/07/19 16:47:55;;;;;;;;;;;;;;;;;;5033638;28;19932;-78